createdAt,value
2022-12-08T00:01:31.175Z,99854.81
2022-12-08T00:04:00.856Z,99861.66
2022-12-08T00:06:54.091Z,99857.19
2022-12-08T00:09:39.144Z,99854.63
2022-12-08T00:12:11.970Z,99855.94
2022-12-08T00:14:45.445Z,99854.06
2022-12-08T00:17:15.582Z,99849.53
2022-12-08T00:19:44.170Z,99856.66
2022-12-08T00:22:12.813Z,99846.56
2022-12-08T00:24:41.391Z,99851.75
2022-12-08T00:27:10.652Z,99844.59
2022-12-08T00:29:38.969Z,99851.38
2022-12-08T00:32:07.095Z,99846.09
2022-12-08T00:34:35.245Z,99848.91
2022-12-08T00:37:03.380Z,99849.91
2022-12-08T00:39:30.895Z,99846.47
2022-12-08T00:42:13.518Z,99848.44
2022-12-08T00:44:42.484Z,99849.00
2022-12-08T00:47:10.165Z,99844.94
2022-12-08T00:49:37.497Z,99839.56
2022-12-08T00:52:05.520Z,99835.09
2022-12-08T00:54:32.980Z,99837.94
2022-12-08T00:57:00.698Z,99831.06
2022-12-08T00:59:28.486Z,99832.44
2022-12-08T01:01:56.254Z,99827.00
2022-12-08T01:04:24.207Z,99824.19
2022-12-08T01:06:52.085Z,99826.31
2022-12-08T01:09:19.922Z,99824.94
2022-12-08T01:11:48.667Z,99824.19
2022-12-08T01:14:16.354Z,99808.38
2022-12-08T01:16:44.193Z,99817.81
2022-12-08T01:19:13.743Z,99813.31
2022-12-08T01:21:42.623Z,99813.38
2022-12-08T01:24:14.947Z,99818.06
2022-12-08T01:26:42.718Z,99817.84
2022-12-08T01:29:11.264Z,99811.94
2022-12-08T01:31:39.680Z,99819.88
2022-12-08T01:34:08.743Z,99817.13
2022-12-08T01:36:37.560Z,99815.41
2022-12-08T01:39:19.642Z,99817.00
2022-12-08T01:41:47.847Z,99808.38
2022-12-08T01:44:15.198Z,99806.72
2022-12-08T01:46:47.346Z,99808.34
2022-12-08T01:49:27.038Z,99807.59
2022-12-08T01:52:03.042Z,99817.28
2022-12-08T01:54:36.873Z,99813.47
2022-12-08T01:57:20.746Z,99819.56
2022-12-08T01:59:54.784Z,99814.47
2022-12-08T02:02:24.200Z,99811.81
2022-12-08T02:04:51.748Z,99803.28
2022-12-08T02:07:20.488Z,99813.00
2022-12-08T02:09:48.119Z,99805.91
2022-12-08T02:12:15.878Z,99806.81
2022-12-08T02:14:43.451Z,99811.94
2022-12-08T02:17:51.121Z,99806.53
2022-12-08T02:20:27.293Z,99803.22
2022-12-08T02:22:59.919Z,99807.63
2022-12-08T02:25:35.550Z,99799.69
2022-12-08T02:28:32.154Z,99802.91
2022-12-08T02:31:11.507Z,99802.09
2022-12-08T02:34:04.401Z,99804.06
2022-12-08T02:36:47.049Z,99806.13
2022-12-08T02:39:36.224Z,99802.31
2022-12-08T02:42:31.622Z,99799.84
2022-12-08T02:45:26.128Z,99794.66
2022-12-08T02:47:54.119Z,99795.72
2022-12-08T02:50:21.653Z,99800.25
2022-12-08T02:52:49.198Z,99799.25
2022-12-08T02:55:28.269Z,99799.25
2022-12-08T02:58:07.853Z,99794.75
2022-12-08T03:01:01.969Z,99791.19
2022-12-08T03:03:43.990Z,99794.50
2022-12-08T03:06:23.834Z,99795.72
2022-12-08T03:09:06.161Z,99794.88
2022-12-08T03:11:42.620Z,99784.41
2022-12-08T03:14:14.586Z,99787.97
2022-12-08T03:16:45.763Z,99782.66
2022-12-08T03:19:20.108Z,99780.97
2022-12-08T03:21:51.862Z,99788.69
2022-12-08T03:24:23.150Z,99780.09
2022-12-08T03:26:57.126Z,99780.94
2022-12-08T03:29:24.993Z,99778.88
2022-12-08T03:31:57.613Z,99775.31
2022-12-08T03:34:29.943Z,99775.56
2022-12-08T03:37:00.150Z,99769.72
2022-12-08T03:39:27.663Z,99766.19
2022-12-08T03:41:55.277Z,99763.53
2022-12-08T03:44:23.001Z,99760.16
2022-12-08T03:46:50.685Z,99762.81
2022-12-08T03:49:18.077Z,99771.25
2022-12-08T03:51:45.581Z,99764.69
2022-12-08T03:54:13.114Z,99767.47
2022-12-08T03:56:40.611Z,99763.06
2022-12-08T03:59:08.989Z,99764.59
2022-12-08T04:01:36.708Z,99760.31
2022-12-08T04:04:04.552Z,99761.88
2022-12-08T04:06:31.925Z,99764.53
2022-12-08T04:08:59.775Z,99765.19
2022-12-08T04:11:27.347Z,99757.75
2022-12-08T04:13:55.129Z,99769.66
2022-12-08T04:16:25.332Z,99765.41
2022-12-08T04:18:53.374Z,99768.00
2022-12-08T04:21:21.745Z,99761.25
2022-12-08T04:23:49.451Z,99756.25
2022-12-08T04:26:17.050Z,99757.03
2022-12-08T04:28:45.010Z,99757.75
2022-12-08T04:31:12.608Z,99756.03
2022-12-08T04:33:40.195Z,99755.19
2022-12-08T04:36:08.252Z,99759.41
2022-12-08T04:38:36.005Z,99763.00
2022-12-08T04:41:04.138Z,99758.66
2022-12-08T04:43:31.592Z,99762.09
2022-12-08T04:45:59.361Z,99763.84
2022-12-08T04:48:27.198Z,99758.75
2022-12-08T04:50:54.748Z,99749.91
2022-12-08T04:53:22.804Z,99752.38
2022-12-08T04:55:50.573Z,99757.75
2022-12-08T04:58:20.291Z,99752.38
2022-12-08T05:00:48.814Z,99749.06
2022-12-08T05:03:17.040Z,99742.59
2022-12-08T05:05:44.788Z,99736.59
2022-12-08T05:08:12.733Z,99739.22
2022-12-08T05:10:40.588Z,99740.91
2022-12-08T05:13:08.359Z,99742.19
2022-12-08T05:15:35.900Z,99739.91
2022-12-08T05:18:06.371Z,99733.00
2022-12-08T05:20:35.023Z,99746.75
2022-12-08T05:23:02.776Z,99743.34
2022-12-08T05:25:30.213Z,99743.47
2022-12-08T05:28:17.656Z,99740.88
2022-12-08T05:30:45.341Z,99738.91
2022-12-08T05:33:13.063Z,99737.75
2022-12-08T05:35:40.546Z,99732.47
2022-12-08T05:38:08.088Z,99725.66
2022-12-08T05:40:38.829Z,99723.19
2022-12-08T05:43:06.703Z,99732.53
2022-12-08T05:45:34.516Z,99729.16
2022-12-08T05:48:02.385Z,99733.44
2022-12-08T05:50:30.089Z,99724.69
2022-12-08T05:52:57.609Z,99726.38
2022-12-08T05:55:25.039Z,99728.97
2022-12-08T05:57:52.668Z,99736.88
2022-12-08T06:00:20.947Z,99733.19
2022-12-08T06:02:48.616Z,99727.81
2022-12-08T06:05:16.257Z,99731.19
2022-12-08T06:07:43.877Z,99739.63
2022-12-08T06:10:12.011Z,99728.59
2022-12-08T06:12:40.452Z,99732.06
2022-12-08T06:15:08.239Z,99734.56
2022-12-08T06:17:35.954Z,99736.38
2022-12-08T06:20:04.044Z,99734.84
2022-12-08T06:22:31.943Z,99738.06
2022-12-08T06:24:59.465Z,99737.84
2022-12-08T06:27:27.233Z,99742.94
2022-12-08T06:29:55.042Z,99741.31
2022-12-08T06:32:27.258Z,99743.13
2022-12-08T06:34:55.163Z,99750.78
2022-12-08T06:37:22.589Z,99742.09
2022-12-08T06:39:50.122Z,99744.63
2022-12-08T06:42:36.361Z,99751.34
2022-12-08T06:45:04.212Z,99745.22
2022-12-08T06:47:31.654Z,99745.38
2022-12-08T06:49:59.733Z,99754.00
2022-12-08T06:52:27.237Z,99754.84
2022-12-08T06:54:54.730Z,99758.88
2022-12-08T06:57:24.073Z,99758.19
2022-12-08T06:59:51.914Z,99753.00
2022-12-08T07:02:19.805Z,99749.25
2022-12-08T07:04:47.604Z,99745.03
2022-12-08T07:07:15.406Z,99747.56
2022-12-08T07:09:43.121Z,99746.53
2022-12-08T07:12:10.564Z,99739.59
2022-12-08T07:14:38.236Z,99737.69
2022-12-08T07:17:06.047Z,99741.13
2022-12-08T07:19:33.876Z,99735.75
2022-12-08T07:22:01.585Z,99738.44
2022-12-08T07:24:29.064Z,99737.50
2022-12-08T07:26:56.564Z,99738.22
2022-12-08T07:29:26.367Z,99744.25
2022-12-08T07:31:54.114Z,99738.19
2022-12-08T07:34:21.749Z,99746.69
2022-12-08T07:36:49.268Z,99743.41
2022-12-08T07:39:17.157Z,99734.78
2022-12-08T07:41:44.583Z,99746.69
2022-12-08T07:44:12.795Z,99744.22
2022-12-08T07:46:40.485Z,99739.75
2022-12-08T07:49:08.205Z,99743.91
2022-12-08T07:51:35.747Z,99747.41
2022-12-08T07:54:03.284Z,99741.16
2022-12-08T07:56:30.783Z,99741.91
2022-12-08T07:58:58.388Z,99741.03
2022-12-08T08:01:30.486Z,99746.22
2022-12-08T08:04:04.451Z,99748.03
2022-12-08T08:06:33.818Z,99749.69
2022-12-08T08:09:01.638Z,99746.25
2022-12-08T08:11:29.507Z,99744.47
2022-12-08T08:13:57.620Z,99741.88
2022-12-08T08:16:25.501Z,99744.34
2022-12-08T08:18:53.698Z,99747.06
2022-12-08T08:21:45.143Z,99743.50
2022-12-08T08:24:09.768Z,99746.81
2022-12-08T08:26:37.847Z,99745.00
2022-12-08T08:29:05.602Z,99744.88
2022-12-08T08:31:33.337Z,99736.16
2022-12-08T08:34:06.073Z,99741.97
2022-12-08T08:36:34.184Z,99737.59
2022-12-08T08:39:02.375Z,99731.47
2022-12-08T08:41:29.894Z,99734.03
2022-12-08T08:43:57.458Z,99725.41
2022-12-08T08:46:25.272Z,99728.84
2022-12-08T08:48:52.934Z,99725.25
2022-12-08T08:51:21.256Z,99733.81
2022-12-08T08:53:48.820Z,99733.66
2022-12-08T08:56:21.844Z,99729.09
2022-12-08T08:58:50.426Z,99727.34
2022-12-08T09:01:21.249Z,99731.66
2022-12-08T09:03:49.878Z,99732.53
2022-12-08T09:06:17.897Z,99730.63
2022-12-08T09:08:46.307Z,99737.44
2022-12-08T09:11:14.850Z,99735.69
2022-12-08T09:13:42.610Z,99737.44
2022-12-08T09:16:12.095Z,99733.94
2022-12-08T09:18:40.053Z,99736.44
2022-12-08T09:21:11.586Z,99737.16
2022-12-08T09:23:40.134Z,99737.88
2022-12-08T09:26:08.355Z,99739.59
2022-12-08T09:28:37.573Z,99737.75
2022-12-08T09:31:05.481Z,99746.34
2022-12-08T09:33:32.980Z,99739.19
2022-12-08T09:36:04.339Z,99745.38
2022-12-08T09:38:32.621Z,99744.31
2022-12-08T09:41:02.348Z,99737.38
2022-12-08T09:43:46.039Z,99740.75
2022-12-08T09:46:17.621Z,99744.84
2022-12-08T09:48:57.352Z,99740.38
2022-12-08T09:51:36.012Z,99742.06
2022-12-08T09:54:09.984Z,99744.53
2022-12-08T09:56:37.773Z,99747.41
2022-12-08T09:59:08.539Z,99738.81
2022-12-08T10:01:41.746Z,99745.69
2022-12-08T10:04:26.736Z,99750.81
2022-12-08T10:06:56.953Z,99754.25
2022-12-08T10:09:40.416Z,99753.34
2022-12-08T10:12:08.169Z,99752.59
2022-12-08T10:14:43.349Z,99759.31
2022-12-08T10:17:28.652Z,99753.19
2022-12-08T10:20:12.307Z,99759.84
2022-12-08T10:22:44.577Z,99755.44
2022-12-08T10:25:18.420Z,99756.28
2022-12-08T10:27:53.272Z,99758.03
2022-12-08T10:30:22.636Z,99760.63
2022-12-08T10:32:52.164Z,99759.63
2022-12-08T10:35:22.046Z,99757.84
2022-12-08T10:38:01.713Z,99755.28
2022-12-08T10:40:40.596Z,99764.34
2022-12-08T10:43:20.886Z,99759.19
2022-12-08T10:45:48.672Z,99765.91
2022-12-08T10:48:30.672Z,99767.50
2022-12-08T10:50:59.778Z,99765.69
2022-12-08T10:53:31.776Z,99771.78
2022-12-08T10:56:02.266Z,99773.56
2022-12-08T10:58:31.416Z,99777.81
2022-12-08T11:01:04.944Z,99777.22
2022-12-08T11:03:44.675Z,99776.19
2022-12-08T11:06:17.714Z,99786.41
2022-12-08T11:08:49.070Z,99786.28
2022-12-08T11:11:17.632Z,99783.72
2022-12-08T11:13:45.232Z,99781.97
2022-12-08T11:16:15.986Z,99790.66
2022-12-08T11:18:55.219Z,99793.41
2022-12-08T11:21:37.808Z,99796.84
2022-12-08T11:24:14.313Z,99803.88
2022-12-08T11:26:58.122Z,99797.88
2022-12-08T11:29:28.028Z,99798.81
2022-12-08T11:32:12.401Z,99797.97
2022-12-08T11:34:55.436Z,99813.47
2022-12-08T11:37:34.732Z,99818.81
2022-12-08T11:40:21.733Z,99810.16
2022-12-08T11:42:58.434Z,99811.00
2022-12-08T11:45:33.153Z,99810.25
2022-12-08T11:48:15.954Z,99815.56
2022-12-08T11:50:47.570Z,99825.97
2022-12-08T11:53:23.507Z,99827.56
2022-12-08T11:55:57.582Z,99827.66
2022-12-08T11:58:34.855Z,99829.31
2022-12-08T12:01:02.975Z,99833.66
2022-12-08T12:03:47.295Z,99835.44
2022-12-08T12:06:54.893Z,99836.13
2022-12-08T12:09:31.996Z,99836.09
2022-12-08T12:12:15.907Z,99840.44
2022-12-08T12:14:46.291Z,99845.56
2022-12-08T12:17:35.223Z,99842.97
2022-12-08T12:20:12.124Z,99840.44
2022-12-08T12:22:40.669Z,99850.78
2022-12-08T12:25:18.030Z,99856.03
2022-12-08T12:27:46.605Z,99845.63
2022-12-08T12:30:53.933Z,99863.75
2022-12-08T12:33:23.184Z,99866.28
2022-12-08T12:35:51.232Z,99867.22
2022-12-08T12:38:46.032Z,99870.63
2022-12-08T12:41:16.942Z,99878.38
2022-12-08T12:44:12.379Z,99871.56
2022-12-08T12:46:54.071Z,99881.09
2022-12-08T12:49:39.728Z,99882.72
2022-12-08T12:52:10.479Z,99885.50
2022-12-08T12:54:43.552Z,99888.16
2022-12-08T12:57:11.268Z,99886.44
2022-12-08T13:00:08.385Z,99895.88
2022-12-08T13:02:36.463Z,99902.00
2022-12-08T13:05:18.017Z,99905.50
2022-12-08T13:07:48.574Z,99907.25
2022-12-08T13:10:16.260Z,99909.00
2022-12-08T13:12:45.946Z,99913.31
2022-12-08T13:15:19.910Z,99923.88
2022-12-08T13:17:49.138Z,99925.66
2022-12-08T13:20:24.990Z,99927.19
2022-12-08T13:23:13.423Z,99939.34
2022-12-08T13:25:40.812Z,99938.38
2022-12-08T13:28:21.007Z,99949.28
2022-12-08T13:30:50.900Z,99954.75
2022-12-08T13:33:22.221Z,99958.16
2022-12-08T13:36:28.217Z,99958.19
2022-12-08T13:38:58.807Z,99961.56
2022-12-08T13:41:43.492Z,99968.28
2022-12-08T13:47:33.709Z,99972.75
2022-12-08T13:54:35.482Z,99979.75
2022-12-08T13:58:48.217Z,99996.38
2022-12-08T14:01:24.348Z,100005.00
2022-12-08T14:06:58.340Z,100011.00
2022-12-08T14:09:32.558Z,100020.41
2022-12-08T14:12:17.805Z,100026.38
2022-12-08T14:15:04.914Z,100029.00
2022-12-08T14:17:33.766Z,100029.00
2022-12-08T14:20:03.195Z,100035.22
2022-12-08T14:22:39.286Z,100036.25
2022-12-08T14:25:14.068Z,100046.69
2022-12-08T14:27:42.470Z,100049.25
2022-12-08T14:30:16.123Z,100060.53
2022-12-08T14:32:48.344Z,100062.38
2022-12-08T14:35:22.553Z,100062.16
2022-12-08T14:37:54.688Z,100061.22
2022-12-08T14:40:28.763Z,100054.81
2022-12-08T14:43:08.726Z,100067.78
2022-12-08T14:45:39.166Z,100082.66
2022-12-08T14:48:31.477Z,100086.22
2022-12-08T14:51:07.394Z,100096.63
2022-12-08T14:53:41.907Z,100095.00
2022-12-08T14:56:36.163Z,100106.31
2022-12-08T14:59:12.158Z,100099.38
2022-12-08T15:01:40.503Z,100106.41
2022-12-08T15:04:13.530Z,100117.53
2022-12-08T15:06:54.352Z,100121.75
2022-12-08T15:10:10.446Z,100124.34
2022-12-08T15:12:38.078Z,100129.50
2022-12-08T15:15:08.486Z,100139.16
2022-12-08T15:17:49.059Z,100136.56
2022-12-08T15:20:39.133Z,100133.97
2022-12-08T15:23:21.439Z,100137.47
2022-12-08T15:25:49.965Z,100142.59
2022-12-08T15:28:23.979Z,100143.38
2022-12-08T15:30:55.209Z,100144.66
2022-12-08T15:33:22.996Z,100145.53
2022-12-08T15:35:51.385Z,100148.22
2022-12-08T15:38:26.703Z,100150.84
2022-12-08T15:40:55.009Z,100154.41
2022-12-08T15:43:23.303Z,100156.09
2022-12-08T15:45:59.208Z,100161.31
2022-12-08T15:48:30.199Z,100159.53
2022-12-08T15:50:58.867Z,100157.72
2022-12-08T15:53:26.378Z,100175.81
2022-12-08T15:58:58.804Z,100187.94
2022-12-08T16:01:27.232Z,100186.25
2022-12-08T16:09:38.841Z,100191.53
2022-12-08T16:13:40.463Z,100190.41
2022-12-08T16:18:25.129Z,100198.63
2022-12-08T16:23:44.169Z,100200.94
2022-12-08T16:29:06.611Z,100208.91
2022-12-08T16:31:34.976Z,100202.03
2022-12-08T16:34:02.552Z,100207.09
2022-12-08T16:36:30.264Z,100225.22
2022-12-08T16:38:57.912Z,100226.94
2022-12-08T16:41:43.912Z,100226.16
2022-12-08T16:44:11.411Z,100227.78
2022-12-08T16:46:39.228Z,100227.00
2022-12-08T16:49:09.056Z,100232.28
2022-12-08T16:51:36.717Z,100223.84
2022-12-08T16:54:04.486Z,100232.59
2022-12-08T16:56:33.528Z,100227.19
2022-12-08T16:59:02.470Z,100227.28
2022-12-08T17:01:30.538Z,100228.16
2022-12-08T17:04:29.731Z,100236.81
2022-12-08T17:06:46.812Z,100242.97
2022-12-08T17:09:14.658Z,100247.25
2022-12-08T17:11:43.705Z,100252.50
2022-12-08T17:14:12.525Z,100257.59
2022-12-08T17:16:40.661Z,100261.94
2022-12-08T17:19:08.752Z,100261.91
2022-12-08T17:21:36.439Z,100268.47
2022-12-08T17:24:04.475Z,100273.66
2022-12-08T17:26:32.373Z,100271.13
2022-12-08T17:29:02.391Z,100267.66
2022-12-08T17:31:32.161Z,100263.28
2022-12-08T17:34:03.039Z,100266.53
2022-12-08T17:36:31.313Z,100272.72
2022-12-08T17:39:00.467Z,100269.28
2022-12-08T17:41:29.099Z,100275.31
2022-12-08T17:43:57.036Z,100267.63
2022-12-08T17:46:24.735Z,100276.28
2022-12-08T17:48:52.655Z,100292.00
2022-12-08T17:51:20.969Z,100283.47
2022-12-08T17:53:48.692Z,100292.97
2022-12-08T17:56:19.617Z,100302.56
2022-12-08T17:58:54.032Z,100312.31
2022-12-08T18:01:23.610Z,100308.59
2022-12-08T18:03:51.837Z,100318.16
2022-12-08T18:06:19.717Z,100324.28
2022-12-08T18:08:47.734Z,100318.16
2022-12-08T18:11:18.425Z,100319.75
2022-12-08T18:13:47.626Z,100325.69
2022-12-08T18:16:15.971Z,100323.94
2022-12-08T18:18:43.694Z,100333.59
2022-12-08T18:21:11.829Z,100341.19
2022-12-08T18:23:42.263Z,100344.47
2022-12-08T18:26:13.766Z,100347.88
2022-12-08T18:28:42.095Z,100348.53
2022-12-08T18:31:15.944Z,100345.94
2022-12-08T18:33:45.077Z,100350.31
2022-12-08T18:36:14.261Z,100365.91
2022-12-08T18:38:41.782Z,100376.25
2022-12-08T18:41:12.182Z,100379.72
2022-12-08T18:43:40.616Z,100388.28
2022-12-08T18:46:11.016Z,100381.44
2022-12-08T18:48:46.216Z,100383.94
2022-12-08T18:51:16.556Z,100381.28
2022-12-08T18:53:45.401Z,100383.91
2022-12-08T18:56:26.293Z,100395.44
2022-12-08T18:59:01.295Z,100395.59
2022-12-08T19:01:33.205Z,100393.97
2022-12-08T19:04:27.868Z,100403.50
2022-12-08T19:06:53.431Z,100399.97
2022-12-08T19:09:22.405Z,100404.41
2022-12-08T19:11:50.280Z,100404.56
2022-12-08T19:14:22.570Z,100399.63
2022-12-08T19:16:53.732Z,100408.56
2022-12-08T19:19:21.649Z,100413.91
2022-12-08T19:21:49.598Z,100410.72
2022-12-08T19:24:17.704Z,100416.00
2022-12-08T19:26:45.736Z,100418.66
2022-12-08T19:29:13.948Z,100424.94
2022-12-08T19:31:41.905Z,100424.03
2022-12-08T19:34:11.965Z,100435.66
2022-12-08T19:36:42.733Z,100433.09
2022-12-08T19:39:33.720Z,100434.13
2022-12-08T19:42:20.550Z,100439.34
2022-12-08T19:44:54.462Z,100438.56
2022-12-08T19:47:24.848Z,100442.16
2022-12-08T19:50:17.095Z,100447.19
2022-12-08T19:52:45.485Z,100446.38
2022-12-08T19:55:13.514Z,100450.47
2022-12-08T19:57:41.571Z,100446.28
2022-12-08T20:00:11.111Z,100451.44
2022-12-08T20:02:39.388Z,100461.81
2022-12-08T20:05:08.468Z,100474.72
2022-12-08T20:07:36.444Z,100471.16
2022-12-08T20:10:06.808Z,100478.19
2022-12-08T20:12:34.516Z,100475.69
2022-12-08T20:15:02.642Z,100487.88
2022-12-08T20:17:30.715Z,100487.91
2022-12-08T20:20:02.587Z,100488.88
2022-12-08T20:22:34.518Z,100496.69
2022-12-08T20:25:03.096Z,100499.28
2022-12-08T20:27:31.027Z,100503.66
2022-12-08T20:29:59.137Z,100504.63
2022-12-08T20:32:27.101Z,100510.59
2022-12-08T20:34:55.404Z,100518.53
2022-12-08T20:37:22.988Z,100519.47
2022-12-08T20:39:52.367Z,100515.22
2022-12-08T20:42:20.480Z,100519.53
2022-12-08T20:44:48.588Z,100524.88
2022-12-08T20:47:17.445Z,100534.53
2022-12-08T20:49:47.136Z,100524.41
2022-12-08T20:52:15.847Z,100538.44
2022-12-08T20:54:43.697Z,100538.59
2022-12-08T20:57:11.711Z,100546.59
2022-12-08T20:59:39.704Z,100551.94
2022-12-08T21:02:07.613Z,100549.50
2022-12-08T21:04:35.637Z,100552.88
2022-12-08T21:07:03.759Z,100552.09
2022-12-08T21:09:31.504Z,100552.97
2022-12-08T21:11:59.216Z,100559.16
2022-12-08T21:14:26.953Z,100561.78
2022-12-08T21:16:55.645Z,100571.38
2022-12-08T21:19:26.044Z,100564.69
2022-12-08T21:21:53.819Z,100572.47
2022-12-08T21:24:21.920Z,100573.34
2022-12-08T21:26:50.153Z,100575.94
2022-12-08T21:29:18.036Z,100581.31
2022-12-08T21:31:45.950Z,100580.50
2022-12-08T21:34:14.065Z,100587.50
2022-12-08T21:36:41.763Z,100589.00
2022-12-08T21:39:12.833Z,100583.88
2022-12-08T21:41:59.607Z,100592.75
2022-12-08T21:44:27.506Z,100591.19
2022-12-08T21:46:55.169Z,100589.47
2022-12-08T21:49:23.254Z,100596.31
2022-12-08T21:51:51.332Z,100595.66
2022-12-08T21:54:19.635Z,100594.88
2022-12-08T21:56:48.800Z,100599.91
2022-12-08T21:59:17.819Z,100596.56
2022-12-08T22:01:46.022Z,100599.09
2022-12-08T22:04:18.178Z,100591.38
2022-12-08T22:06:46.352Z,100602.59
2022-12-08T22:09:15.223Z,100604.41
2022-12-08T22:11:43.943Z,100600.97
2022-12-08T22:14:14.999Z,100612.16
2022-12-08T22:16:44.112Z,100614.75
2022-12-08T22:19:12.778Z,100622.66
2022-12-08T22:21:41.590Z,100614.19
2022-12-08T22:24:09.838Z,100613.25
2022-12-08T22:26:37.813Z,100616.13
2022-12-08T22:29:05.592Z,100618.78
2022-12-08T22:31:33.233Z,100622.16
2022-12-08T22:34:00.807Z,100623.84
2022-12-08T22:36:28.856Z,100630.81
2022-12-08T22:38:57.111Z,100626.63
2022-12-08T22:41:24.939Z,100624.84
2022-12-08T22:43:52.513Z,100634.38
2022-12-08T22:46:21.631Z,100638.78
2022-12-08T22:48:50.218Z,100630.97
2022-12-08T22:51:18.402Z,100626.53
2022-12-08T22:53:46.666Z,100630.88
2022-12-08T22:56:15.485Z,100633.63
2022-12-08T22:58:44.519Z,100637.00
2022-12-08T23:01:22.126Z,100636.19
2022-12-08T23:03:49.710Z,100634.50
2022-12-08T23:06:17.500Z,100634.50
2022-12-08T23:08:45.897Z,100633.69
2022-12-08T23:11:14.011Z,100640.53
2022-12-08T23:13:42.260Z,100633.63
2022-12-08T23:16:11.700Z,100634.59
2022-12-08T23:18:44.918Z,100632.97
2022-12-08T23:21:18.955Z,100637.31
2022-12-08T23:23:46.878Z,100640.78
2022-12-08T23:26:26.760Z,100635.53
2022-12-08T23:28:56.381Z,100644.22
2022-12-08T23:31:24.865Z,100638.13
2022-12-08T23:33:53.379Z,100640.75
2022-12-08T23:36:22.581Z,100641.59
2022-12-08T23:38:49.949Z,100647.69
2022-12-08T23:41:17.799Z,100651.94
2022-12-08T23:43:47.903Z,100652.81
2022-12-08T23:46:17.277Z,100658.06
2022-12-08T23:48:45.538Z,100652.97
2022-12-08T23:51:14.035Z,100653.00
2022-12-08T23:53:41.700Z,100651.97
2022-12-08T23:56:12.210Z,100661.44
2022-12-08T23:58:41.641Z,100651.09
